createdAt,value
2018-11-01T18:25:47.096Z,96.50
2018-11-01T18:28:15.266Z,96.60
2018-11-01T18:30:43.216Z,96.40
2018-11-01T18:33:10.923Z,96.70
2018-11-01T18:35:38.566Z,97.20
2018-11-01T18:38:06.424Z,96.80
2018-11-01T18:40:34.185Z,97.10
2018-11-01T18:43:01.959Z,97.10
2018-11-01T18:45:30.586Z,97.10
2018-11-01T18:47:58.311Z,97.30
2018-11-01T18:50:26.446Z,97.80
2018-11-01T18:52:55.115Z,96.70
2018-11-01T18:55:23.489Z,97.20
2018-11-01T18:57:51.993Z,97.30
2018-11-01T19:00:19.698Z,97.80
2018-11-01T19:02:47.754Z,97.80
2018-11-01T19:05:15.541Z,97.80
2018-11-01T19:07:44.519Z,97.60
2018-11-01T19:10:13.287Z,97.50
2018-11-01T19:12:41.788Z,97.60
2018-11-01T19:15:11.393Z,97.60
2018-11-01T19:17:40.217Z,98.10
2018-11-01T19:20:09.362Z,97.30
2018-11-01T19:22:37.355Z,98.10
2018-11-01T19:25:05.680Z,97.70
2018-11-01T19:27:33.614Z,97.50
2018-11-01T19:30:02.099Z,97.40
2018-11-01T19:32:30.092Z,97.80
2018-11-01T19:34:58.057Z,97.90
2018-11-01T19:37:25.859Z,97.40
2018-11-01T19:39:54.053Z,97.50
2018-11-01T19:42:21.936Z,97.60
2018-11-01T19:44:49.943Z,97.80
2018-11-01T19:47:17.750Z,97.50
2018-11-01T19:49:45.406Z,97.30
2018-11-01T19:52:12.994Z,97.80
2018-11-01T19:54:40.731Z,98.10
2018-11-01T19:57:08.242Z,98.10
2018-11-01T19:59:35.907Z,98.00
2018-11-01T20:02:03.585Z,98.20
2018-11-01T20:04:31.419Z,98.00
2018-11-01T20:07:01.389Z,97.60
2018-11-01T20:09:29.057Z,97.80
2018-11-01T20:11:56.740Z,97.30
2018-11-01T20:14:24.402Z,97.20
2018-11-01T20:16:52.104Z,97.60
2018-11-01T20:19:19.907Z,97.60
2018-11-01T20:21:47.555Z,97.00
2018-11-01T20:24:15.486Z,97.00
2018-11-01T20:26:43.166Z,97.30
2018-11-01T20:29:10.904Z,97.10
2018-11-01T20:31:38.787Z,97.20
2018-11-01T20:34:06.691Z,97.00
2018-11-01T20:36:34.615Z,96.80
2018-11-01T20:39:02.319Z,96.60
2018-11-01T20:41:29.973Z,96.40
2018-11-01T20:43:57.872Z,95.70
2018-11-01T20:46:26.458Z,95.60
2018-11-01T20:48:54.138Z,95.40
2018-11-01T20:51:21.869Z,95.40
2018-11-01T20:53:49.864Z,95.70
2018-11-01T20:56:17.494Z,95.90
2018-11-01T20:58:45.123Z,95.50
2018-11-01T21:01:15.621Z,96.10
2018-11-01T21:03:43.334Z,95.90
2018-11-01T21:06:11.158Z,96.00
2018-11-01T21:08:39.135Z,96.30
2018-11-01T21:11:08.869Z,96.50
2018-11-01T21:13:43.663Z,96.70
2018-11-01T21:16:11.371Z,96.60
2018-11-01T21:18:38.979Z,97.00
2018-11-01T21:21:07.560Z,96.70
2018-11-01T21:23:35.355Z,96.80
2018-11-01T21:26:03.927Z,97.30
2018-11-01T21:28:31.837Z,96.80
2018-11-01T21:31:06.318Z,97.20
2018-11-01T21:33:36.401Z,96.90
2018-11-01T21:36:04.305Z,96.40
2018-11-01T21:38:32.743Z,96.40
2018-11-01T21:41:01.610Z,96.30
2018-11-01T21:43:32.712Z,96.50
2018-11-01T21:46:00.382Z,96.60
2018-11-01T21:48:28.055Z,96.50
2018-11-01T21:50:55.711Z,96.50
2018-11-01T21:53:23.444Z,96.50
2018-11-01T21:55:51.130Z,96.80
2018-11-01T21:58:19.054Z,96.60
2018-11-01T22:00:47.102Z,96.80
2018-11-01T22:03:14.718Z,96.80
2018-11-01T22:05:42.303Z,97.00
2018-11-01T22:08:09.945Z,97.40
2018-11-01T22:10:37.595Z,97.40
2018-11-01T22:13:05.212Z,97.60
2018-11-01T22:15:32.775Z,97.90
2018-11-01T22:18:00.427Z,97.50
2018-11-01T22:20:28.035Z,97.80
2018-11-01T22:22:55.683Z,97.60
2018-11-01T22:25:23.243Z,97.90
2018-11-01T22:27:51.022Z,97.30
2018-11-01T22:30:18.671Z,97.60
2018-11-01T22:32:46.400Z,97.10
2018-11-01T22:35:14.002Z,97.00
2018-11-01T22:37:42.172Z,97.00
2018-11-01T22:40:09.810Z,97.10
2018-11-01T22:42:37.683Z,97.10
2018-11-01T22:45:06.278Z,96.90
2018-11-01T22:47:33.927Z,96.70
2018-11-01T22:50:01.584Z,96.70
2018-11-01T22:52:29.214Z,96.70
2018-11-01T22:54:56.841Z,96.40
2018-11-01T22:57:24.614Z,96.70
2018-11-01T22:59:52.322Z,97.10
2018-11-01T23:02:20.012Z,97.20
2018-11-01T23:04:47.730Z,97.40
2018-11-01T23:07:15.323Z,97.50
2018-11-01T23:09:42.927Z,97.20
2018-11-01T23:12:10.574Z,97.50
2018-11-01T23:14:38.178Z,97.30
2018-11-01T23:17:05.950Z,97.70
2018-11-01T23:19:33.559Z,97.40
2018-11-01T23:22:01.240Z,97.90
2018-11-01T23:24:28.910Z,97.80
2018-11-01T23:26:56.585Z,97.70
2018-11-01T23:29:24.167Z,97.50
2018-11-01T23:31:51.795Z,97.90
2018-11-01T23:34:19.355Z,97.80
2018-11-01T23:36:52.400Z,98.00
2018-11-01T23:39:25.427Z,98.00
2018-11-01T23:41:58.740Z,97.70
2018-11-01T23:44:31.862Z,97.90
2018-11-01T23:47:05.247Z,97.90
2018-11-01T23:49:39.914Z,98.00
2018-11-01T23:52:13.298Z,98.20
2018-11-01T23:54:40.887Z,97.90
2018-11-01T23:57:08.599Z,98.00
2018-11-01T23:59:36.215Z,98.30
